sensor_id;sensor_type;location;lat;lon;timestamp;pressure;altitude;pressure_sealevel;temperature;humidity
11198;BME280;5655;48.744;9.162;2023-07-29T00:01:14;95725.88;;;19.43;100.00
11198;BME280;5655;48.744;9.162;2023-07-29T00:03:39;95709.16;;;19.44;100.00
11198;BME280;5655;48.744;9.162;2023-07-29T00:06:05;95713.56;;;19.38;100.00
11198;BME280;5655;48.744;9.162;2023-07-29T00:08:30;95692.63;;;19.52;100.00
11198;BME280;5655;48.744;9.162;2023-07-29T00:10:55;95700.00;;;19.38;100.00
11198;BME280;5655;48.744;9.162;2023-07-29T00:13:21;95693.16;;;19.34;100.00
11198;BME280;5655;48.744;9.162;2023-07-29T00:15:46;95698.19;;;19.23;100.00
11198;BME280;5655;48.744;9.162;2023-07-29T00:18:11;95715.63;;;19.09;100.00
11198;BME280;5655;48.744;9.162;2023-07-29T00:20:37;95717.28;;;19.19;100.00
11198;BME280;5655;48.744;9.162;2023-07-29T00:23:02;95716.06;;;19.20;100.00
11198;BME280;5655;48.744;9.162;2023-07-29T00:25:27;95710.09;;;19.38;100.00
11198;BME280;5655;48.744;9.162;2023-07-29T00:27:56;95711.97;;;19.54;100.00
11198;BME280;5655;48.744;9.162;2023-07-29T00:30:21;95718.56;;;19.27;100.00
11198;BME280;5655;48.744;9.162;2023-07-29T00:32:47;95710.97;;;19.60;100.00
11198;BME280;5655;48.744;9.162;2023-07-29T00:35:12;95696.41;;;19.67;100.00
11198;BME280;5655;48.744;9.162;2023-07-29T00:37:38;95692.63;;;19.52;100.00
11198;BME280;5655;48.744;9.162;2023-07-29T00:40:13;95690.25;;;19.54;100.00
11198;BME280;5655;48.744;9.162;2023-07-29T00:42:39;95690.38;;;19.50;100.00
11198;BME280;5655;48.744;9.162;2023-07-29T00:45:05;95688.97;;;19.45;100.00
11198;BME280;5655;48.744;9.162;2023-07-29T00:47:32;95685.19;;;19.77;100.00
11198;BME280;5655;48.744;9.162;2023-07-29T00:49:58;95676.69;;;19.88;100.00
11198;BME280;5655;48.744;9.162;2023-07-29T00:52:23;95675.00;;;19.69;100.00
11198;BME280;5655;48.744;9.162;2023-07-29T00:54:48;95680.84;;;19.80;100.00
11198;BME280;5655;48.744;9.162;2023-07-29T00:57:15;95685.31;;;19.74;100.00
11198;BME280;5655;48.744;9.162;2023-07-29T00:59:41;95683.06;;;19.60;100.00
11198;BME280;5655;48.744;9.162;2023-07-29T01:02:07;95688.91;;;19.71;100.00
11198;BME280;5655;48.744;9.162;2023-07-29T01:04:33;95673.47;;;19.68;100.00
11198;BME280;5655;48.744;9.162;2023-07-29T01:07:14;95666.94;;;19.78;100.00
11198;BME280;5655;48.744;9.162;2023-07-29T01:10:03;95665.41;;;19.77;100.00
11198;BME280;5655;48.744;9.162;2023-07-29T01:17:46;95655.53;;;19.83;100.00
11198;BME280;5655;48.744;9.162;2023-07-29T01:20:16;95663.84;;;19.67;100.00
11198;BME280;5655;48.744;9.162;2023-07-29T01:22:43;95659.72;;;19.62;100.00
11198;BME280;5655;48.744;9.162;2023-07-29T01:25:09;95664.69;;;19.64;100.00
11198;BME280;5655;48.744;9.162;2023-07-29T01:27:34;95655.00;;;19.75;100.00
11198;BME280;5655;48.744;9.162;2023-07-29T01:30:00;95644.09;;;19.88;100.00
11198;BME280;5655;48.744;9.162;2023-07-29T01:32:45;95648.66;;;19.91;100.00
11198;BME280;5655;48.744;9.162;2023-07-29T01:38:03;95660.78;;;19.65;100.00
11198;BME280;5655;48.744;9.162;2023-07-29T01:40:29;95662.88;;;19.61;100.00
11198;BME280;5655;48.744;9.162;2023-07-29T01:42:55;95654.56;;;19.77;100.00
11198;BME280;5655;48.744;9.162;2023-07-29T01:45:24;95651.94;;;20.08;100.00
11198;BME280;5655;48.744;9.162;2023-07-29T01:47:53;95643.56;;;19.93;100.00
11198;BME280;5655;48.744;9.162;2023-07-29T01:50:18;95645.56;;;20.02;100.00
11198;BME280;5655;48.744;9.162;2023-07-29T01:52:43;95639.78;;;19.78;100.00
11198;BME280;5655;48.744;9.162;2023-07-29T01:55:08;95636.47;;;19.61;100.00
11198;BME280;5655;48.744;9.162;2023-07-29T01:57:34;95634.72;;;19.67;100.00
11198;BME280;5655;48.744;9.162;2023-07-29T01:59:59;95634.47;;;19.74;100.00
11198;BME280;5655;48.744;9.162;2023-07-29T02:02:25;95617.97;;;19.69;100.00
11198;BME280;5655;48.744;9.162;2023-07-29T02:04:50;95626.38;;;19.62;100.00
11198;BME280;5655;48.744;9.162;2023-07-29T02:07:20;95625.75;;;19.58;100.00
11198;BME280;5655;48.744;9.162;2023-07-29T02:09:45;95629.59;;;19.69;100.00
11198;BME280;5655;48.744;9.162;2023-07-29T02:12:10;95622.59;;;19.46;100.00
11198;BME280;5655;48.744;9.162;2023-07-29T02:14:36;95624.78;;;19.52;100.00
11198;BME280;5655;48.744;9.162;2023-07-29T02:17:01;95625.19;;;19.37;100.00
11198;BME280;5655;48.744;9.162;2023-07-29T02:19:26;95620.22;;;19.48;100.00
11198;BME280;5655;48.744;9.162;2023-07-29T02:21:52;95621.19;;;19.42;100.00
11198;BME280;5655;48.744;9.162;2023-07-29T02:24:17;95620.09;;;19.39;100.00
11198;BME280;5655;48.744;9.162;2023-07-29T02:26:42;95627.72;;;19.44;100.00
11198;BME280;5655;48.744;9.162;2023-07-29T02:29:07;95617.31;;;19.43;100.00
11198;BME280;5655;48.744;9.162;2023-07-29T02:31:33;95613.59;;;19.24;100.00
11198;BME280;5655;48.744;9.162;2023-07-29T02:33:59;95622.31;;;19.44;100.00
11198;BME280;5655;48.744;9.162;2023-07-29T02:36:25;95629.56;;;19.35;100.00
11198;BME280;5655;48.744;9.162;2023-07-29T02:38:50;95629.59;;;19.22;100.00
11198;BME280;5655;48.744;9.162;2023-07-29T02:41:15;95626.44;;;19.24;100.00
11198;BME280;5655;48.744;9.162;2023-07-29T02:43:42;95619.78;;;19.50;100.00
11198;BME280;5655;48.744;9.162;2023-07-29T02:46:08;95621.63;;;19.40;100.00
11198;BME280;5655;48.744;9.162;2023-07-29T02:48:33;95620.22;;;19.36;100.00
11198;BME280;5655;48.744;9.162;2023-07-29T02:50:58;95613.69;;;19.33;100.00
11198;BME280;5655;48.744;9.162;2023-07-29T02:53:24;95608.81;;;19.41;100.00
11198;BME280;5655;48.744;9.162;2023-07-29T02:55:50;95615.56;;;19.36;100.00
11198;BME280;5655;48.744;9.162;2023-07-29T02:58:15;95613.19;;;19.13;100.00
11198;BME280;5655;48.744;9.162;2023-07-29T03:00:41;95611.00;;;19.33;100.00
11198;BME280;5655;48.744;9.162;2023-07-29T03:03:09;95603.59;;;19.46;100.00
11198;BME280;5655;48.744;9.162;2023-07-29T03:05:35;95601.47;;;19.63;100.00
11198;BME280;5655;48.744;9.162;2023-07-29T03:08:00;95590.63;;;19.63;100.00
11198;BME280;5655;48.744;9.162;2023-07-29T03:10:25;95580.16;;;19.53;100.00
11198;BME280;5655;48.744;9.162;2023-07-29T03:12:53;95591.22;;;19.58;100.00
11198;BME280;5655;48.744;9.162;2023-07-29T03:15:19;95580.03;;;19.56;100.00
11198;BME280;5655;48.744;9.162;2023-07-29T03:17:46;95577.69;;;19.45;100.00
11198;BME280;5655;48.744;9.162;2023-07-29T03:20:11;95581.16;;;19.68;100.00
11198;BME280;5655;48.744;9.162;2023-07-29T03:22:37;95572.78;;;19.40;100.00
11198;BME280;5655;48.744;9.162;2023-07-29T03:25:02;95572.78;;;19.40;100.00
11198;BME280;5655;48.744;9.162;2023-07-29T03:27:28;95558.34;;;19.43;100.00
11198;BME280;5655;48.744;9.162;2023-07-29T03:29:53;95562.69;;;19.41;100.00
11198;BME280;5655;48.744;9.162;2023-07-29T03:32:18;95552.03;;;19.46;100.00
11198;BME280;5655;48.744;9.162;2023-07-29T03:34:44;95570.84;;;19.75;100.00
11198;BME280;5655;48.744;9.162;2023-07-29T03:37:09;95558.19;;;19.60;100.00
11198;BME280;5655;48.744;9.162;2023-07-29T03:39:34;95561.72;;;19.69;100.00
11198;BME280;5655;48.744;9.162;2023-07-29T03:42:00;95563.03;;;19.65;100.00
11198;BME280;5655;48.744;9.162;2023-07-29T03:44:25;95561.78;;;19.57;100.00
11198;BME280;5655;48.744;9.162;2023-07-29T03:46:50;95558.03;;;19.63;100.00
11198;BME280;5655;48.744;9.162;2023-07-29T03:49:16;95555.78;;;19.62;100.00
11198;BME280;5655;48.744;9.162;2023-07-29T03:51:41;95565.06;;;19.39;100.00
11198;BME280;5655;48.744;9.162;2023-07-29T03:54:06;95557.25;;;19.41;100.00
11198;BME280;5655;48.744;9.162;2023-07-29T03:56:32;95574.97;;;19.20;100.00
11198;BME280;5655;48.744;9.162;2023-07-29T03:59:06;95580.22;;;19.62;100.00
11198;BME280;5655;48.744;9.162;2023-07-29T04:01:32;95565.13;;;19.61;100.00
11198;BME280;5655;48.744;9.162;2023-07-29T04:03:58;95563.44;;;19.41;100.00
11198;BME280;5655;48.744;9.162;2023-07-29T04:06:23;95582.09;;;19.39;100.00
11198;BME280;5655;48.744;9.162;2023-07-29T04:08:49;95574.47;;;19.60;100.00
11198;BME280;5655;48.744;9.162;2023-07-29T04:11:14;95578.69;;;19.61;100.00
11198;BME280;5655;48.744;9.162;2023-07-29T04:13:40;95580.88;;;19.06;100.00
11198;BME280;5655;48.744;9.162;2023-07-29T04:16:05;95580.59;;;19.38;100.00
11198;BME280;5655;48.744;9.162;2023-07-29T04:18:30;95578.09;;;19.44;100.00
11198;BME280;5655;48.744;9.162;2023-07-29T04:20:56;95571.00;;;19.59;100.00
11198;BME280;5655;48.744;9.162;2023-07-29T04:23:21;95574.63;;;19.43;100.00
11198;BME280;5655;48.744;9.162;2023-07-29T04:25:47;95588.00;;;19.25;100.00
11198;BME280;5655;48.744;9.162;2023-07-29T04:28:12;95596.16;;;19.13;100.00
11198;BME280;5655;48.744;9.162;2023-07-29T04:30:37;95607.22;;;19.31;100.00
11198;BME280;5655;48.744;9.162;2023-07-29T04:33:03;95604.25;;;19.51;100.00
11198;BME280;5655;48.744;9.162;2023-07-29T04:35:28;95588.84;;;19.47;100.00
11198;BME280;5655;48.744;9.162;2023-07-29T04:37:53;95597.75;;;19.35;100.00
11198;BME280;5655;48.744;9.162;2023-07-29T04:40:18;95599.28;;;19.36;100.00
11198;BME280;5655;48.744;9.162;2023-07-29T04:42:44;95616.00;;;19.35;100.00
11198;BME280;5655;48.744;9.162;2023-07-29T04:45:09;95617.94;;;19.34;100.00
11198;BME280;5655;48.744;9.162;2023-07-29T04:47:35;95620.53;;;19.51;100.00
11198;BME280;5655;48.744;9.162;2023-07-29T04:50:00;95622.81;;;19.39;100.00
11198;BME280;5655;48.744;9.162;2023-07-29T04:52:25;95615.66;;;19.58;100.00
11198;BME280;5655;48.744;9.162;2023-07-29T04:54:51;95627.81;;;19.54;100.00
11198;BME280;5655;48.744;9.162;2023-07-29T04:57:16;95644.31;;;19.46;100.00
11198;BME280;5655;48.744;9.162;2023-07-29T04:59:41;95642.13;;;19.67;100.00
11198;BME280;5655;48.744;9.162;2023-07-29T05:02:06;95622.47;;;19.63;100.00
11198;BME280;5655;48.744;9.162;2023-07-29T05:04:32;95628.75;;;19.60;100.00
11198;BME280;5655;48.744;9.162;2023-07-29T05:06:57;95636.19;;;19.46;100.00
11198;BME280;5655;48.744;9.162;2023-07-29T05:09:23;95627.00;;;19.66;100.00
11198;BME280;5655;48.744;9.162;2023-07-29T05:11:49;95629.97;;;19.46;100.00
11198;BME280;5655;48.744;9.162;2023-07-29T05:14:15;95635.31;;;19.50;100.00
11198;BME280;5655;48.744;9.162;2023-07-29T05:16:41;95620.16;;;19.74;100.00
11198;BME280;5655;48.744;9.162;2023-07-29T05:19:06;95622.69;;;19.56;100.00
11198;BME280;5655;48.744;9.162;2023-07-29T05:21:31;95626.19;;;19.43;100.00
11198;BME280;5655;48.744;9.162;2023-07-29T05:23:57;95625.09;;;19.54;100.00
11198;BME280;5655;48.744;9.162;2023-07-29T05:26:22;95624.66;;;19.42;100.00
11198;BME280;5655;48.744;9.162;2023-07-29T05:28:48;95635.31;;;19.50;100.00
11198;BME280;5655;48.744;9.162;2023-07-29T05:31:13;95659.16;;;19.42;100.00
11198;BME280;5655;48.744;9.162;2023-07-29T05:33:38;95671.25;;;19.28;100.00
11198;BME280;5655;48.744;9.162;2023-07-29T05:36:04;95676.13;;;19.33;100.00
11198;BME280;5655;48.744;9.162;2023-07-29T05:38:30;95679.50;;;19.25;100.00
11198;BME280;5655;48.744;9.162;2023-07-29T05:40:55;95701.44;;;19.18;100.00
11198;BME280;5655;48.744;9.162;2023-07-29T05:43:20;95704.69;;;19.25;100.00
11198;BME280;5655;48.744;9.162;2023-07-29T05:45:46;95704.91;;;19.18;100.00
11198;BME280;5655;48.744;9.162;2023-07-29T05:48:11;95712.28;;;19.43;100.00
11198;BME280;5655;48.744;9.162;2023-07-29T05:50:36;95703.72;;;19.57;100.00
11198;BME280;5655;48.744;9.162;2023-07-29T05:53:01;95719.25;;;19.44;100.00
11198;BME280;5655;48.744;9.162;2023-07-29T05:55:27;95721.94;;;19.57;100.00
11198;BME280;5655;48.744;9.162;2023-07-29T05:57:52;95723.47;;;19.58;100.00
11198;BME280;5655;48.744;9.162;2023-07-29T06:00:17;95726.63;;;19.56;100.00
11198;BME280;5655;48.744;9.162;2023-07-29T06:02:43;95717.16;;;19.61;100.00
11198;BME280;5655;48.744;9.162;2023-07-29T06:05:08;95700.16;;;19.82;100.00
11198;BME280;5655;48.744;9.162;2023-07-29T06:07:33;95724.31;;;19.80;100.00
11198;BME280;5655;48.744;9.162;2023-07-29T06:09:59;95721.66;;;19.89;100.00
11198;BME280;5655;48.744;9.162;2023-07-29T06:12:25;95731.56;;;19.83;100.00
11198;BME280;5655;48.744;9.162;2023-07-29T06:14:50;95723.84;;;20.16;100.00
11198;BME280;5655;48.744;9.162;2023-07-29T06:17:16;95722.25;;;20.18;100.00
11198;BME280;5655;48.744;9.162;2023-07-29T06:19:41;95736.38;;;20.13;100.00
11198;BME280;5655;48.744;9.162;2023-07-29T06:22:06;95730.25;;;20.34;100.00
11198;BME280;5655;48.744;9.162;2023-07-29T06:24:32;95723.91;;;20.37;100.00
11198;BME280;5655;48.744;9.162;2023-07-29T06:26:57;95728.53;;;20.50;100.00
11198;BME280;5655;48.744;9.162;2023-07-29T06:29:23;95716.94;;;20.36;100.00
11198;BME280;5655;48.744;9.162;2023-07-29T06:31:48;95721.00;;;20.54;100.00
11198;BME280;5655;48.744;9.162;2023-07-29T06:34:13;95716.22;;;20.58;100.00
11198;BME280;5655;48.744;9.162;2023-07-29T06:36:39;95706.28;;;20.64;100.00
11198;BME280;5655;48.744;9.162;2023-07-29T06:39:04;95708.50;;;20.56;100.00
11198;BME280;5655;48.744;9.162;2023-07-29T06:41:29;95718.34;;;20.63;100.00
11198;BME280;5655;48.744;9.162;2023-07-29T06:43:55;95708.75;;;20.71;100.00
11198;BME280;5655;48.744;9.162;2023-07-29T06:46:21;95700.75;;;20.76;100.00
11198;BME280;5655;48.744;9.162;2023-07-29T06:48:46;95698.53;;;20.53;100.00
11198;BME280;5655;48.744;9.162;2023-07-29T06:51:11;95706.09;;;20.36;100.00
11198;BME280;5655;48.744;9.162;2023-07-29T06:53:37;95718.19;;;20.35;100.00
11198;BME280;5655;48.744;9.162;2023-07-29T06:56:02;95735.97;;;20.36;100.00
11198;BME280;5655;48.744;9.162;2023-07-29T06:58:28;95718.88;;;20.49;100.00
11198;BME280;5655;48.744;9.162;2023-07-29T07:00:53;95725.69;;;20.31;100.00
11198;BME280;5655;48.744;9.162;2023-07-29T07:03:18;95737.34;;;20.32;100.00
11198;BME280;5655;48.744;9.162;2023-07-29T07:05:44;95741.81;;;20.13;100.00
11198;BME280;5655;48.744;9.162;2023-07-29T07:08:09;95771.56;;;20.29;100.00
11198;BME280;5655;48.744;9.162;2023-07-29T07:10:34;95784.13;;;20.02;100.00
11198;BME280;5655;48.744;9.162;2023-07-29T07:12:59;95800.88;;;19.87;100.00
11198;BME280;5655;48.744;9.162;2023-07-29T07:15:25;95816.31;;;19.78;100.00
11198;BME280;5655;48.744;9.162;2023-07-29T07:17:51;95847.47;;;19.73;100.00
11198;BME280;5655;48.744;9.162;2023-07-29T07:20:16;95840.97;;;19.96;100.00
11198;BME280;5655;48.744;9.162;2023-07-29T07:22:42;95798.91;;;20.01;100.00
11198;BME280;5655;48.744;9.162;2023-07-29T07:25:07;95796.59;;;20.12;100.00
11198;BME280;5655;48.744;9.162;2023-07-29T07:27:33;95791.28;;;20.08;100.00
11198;BME280;5655;48.744;9.162;2023-07-29T07:29:58;95791.25;;;20.21;100.00
11198;BME280;5655;48.744;9.162;2023-07-29T07:32:23;95812.50;;;19.88;100.00
11198;BME280;5655;48.744;9.162;2023-07-29T07:34:49;95818.59;;;19.92;100.00
11198;BME280;5655;48.744;9.162;2023-07-29T07:37:14;95820.41;;;20.08;100.00
11198;BME280;5655;48.744;9.162;2023-07-29T07:39:39;95807.72;;;19.92;100.00
11198;BME280;5655;48.744;9.162;2023-07-29T07:42:05;95795.06;;;20.23;100.00
11198;BME280;5655;48.744;9.162;2023-07-29T07:44:30;95793.44;;;20.13;100.00
11198;BME280;5655;48.744;9.162;2023-07-29T07:46:56;95810.53;;;20.01;100.00
11198;BME280;5655;48.744;9.162;2023-07-29T07:49:22;95823.66;;;20.03;100.00
11198;BME280;5655;48.744;9.162;2023-07-29T07:51:47;95819.81;;;20.25;100.00
11198;BME280;5655;48.744;9.162;2023-07-29T07:54:13;95809.38;;;20.36;100.00
11198;BME280;5655;48.744;9.162;2023-07-29T07:56:38;95805.16;;;20.35;100.00
11198;BME280;5655;48.744;9.162;2023-07-29T07:59:03;95794.06;;;20.30;100.00
11198;BME280;5655;48.744;9.162;2023-07-29T08:01:34;95812.88;;;20.24;100.00
11198;BME280;5655;48.744;9.162;2023-07-29T08:04:00;95828.25;;;20.06;100.00
11198;BME280;5655;48.744;9.162;2023-07-29T08:06:25;95811.91;;;20.31;100.00
11198;BME280;5655;48.744;9.162;2023-07-29T08:08:51;95830.56;;;20.29;100.00
11198;BME280;5655;48.744;9.162;2023-07-29T08:11:16;95830.81;;;20.34;100.00
11198;BME280;5655;48.744;9.162;2023-07-29T08:13:41;95822.81;;;20.53;100.00
11198;BME280;5655;48.744;9.162;2023-07-29T08:16:07;95814.75;;;20.62;100.00
11198;BME280;5655;48.744;9.162;2023-07-29T08:18:32;95817.00;;;20.63;100.00
11198;BME280;5655;48.744;9.162;2023-07-29T08:21:00;95812.09;;;20.71;100.00
11198;BME280;5655;48.744;9.162;2023-07-29T08:23:30;95796.22;;;20.91;100.00
11198;BME280;5655;48.744;9.162;2023-07-29T08:25:58;95803.13;;;20.83;100.00
11198;BME280;5655;48.744;9.162;2023-07-29T08:28:28;95798.31;;;20.87;100.00
11198;BME280;5655;48.744;9.162;2023-07-29T08:30:54;95783.38;;;21.13;100.00
11198;BME280;5655;48.744;9.162;2023-07-29T08:33:19;95777.38;;;21.27;100.00
11198;BME280;5655;48.744;9.162;2023-07-29T08:35:44;95770.47;;;21.05;100.00
11198;BME280;5655;48.744;9.162;2023-07-29T08:38:09;95755.97;;;21.39;100.00
11198;BME280;5655;48.744;9.162;2023-07-29T08:40:37;95754.94;;;21.45;100.00
11198;BME280;5655;48.744;9.162;2023-07-29T08:43:06;95747.22;;;21.44;100.00
11198;BME280;5655;48.744;9.162;2023-07-29T08:45:35;95751.06;;;21.24;100.00
11198;BME280;5655;48.744;9.162;2023-07-29T08:48:07;95763.50;;;21.25;100.00
11198;BME280;5655;48.744;9.162;2023-07-29T08:50:35;95750.78;;;21.32;100.00
11198;BME280;5655;48.744;9.162;2023-07-29T08:53:03;95740.38;;;21.70;100.00
11198;BME280;5655;48.744;9.162;2023-07-29T08:55:29;95731.41;;;21.60;100.00
11198;BME280;5655;48.744;9.162;2023-07-29T08:57:57;95723.19;;;22.00;100.00
11198;BME280;5655;48.744;9.162;2023-07-29T09:00:22;95722.97;;;21.86;100.00
11198;BME280;5655;48.744;9.162;2023-07-29T09:02:48;95713.19;;;22.15;100.00
11198;BME280;5655;48.744;9.162;2023-07-29T09:05:13;95726.16;;;21.84;100.00
11198;BME280;5655;48.744;9.162;2023-07-29T09:07:39;95711.66;;;22.05;100.00
11198;BME280;5655;48.744;9.162;2023-07-29T09:10:08;95697.72;;;22.40;100.00
11198;BME280;5655;48.744;9.162;2023-07-29T09:12:35;95695.63;;;22.07;100.00
11198;BME280;5655;48.744;9.162;2023-07-29T09:15:01;95689.09;;;22.32;100.00
11198;BME280;5655;48.744;9.162;2023-07-29T09:17:26;95683.81;;;22.38;100.00
11198;BME280;5655;48.744;9.162;2023-07-29T09:19:51;95683.75;;;21.83;100.00
11198;BME280;5655;48.744;9.162;2023-07-29T09:22:18;95674.41;;;22.39;100.00
11198;BME280;5655;48.744;9.162;2023-07-29T09:24:45;95665.31;;;22.51;100.00
11198;BME280;5655;48.744;9.162;2023-07-29T09:27:23;95658.00;;;22.66;100.00
11198;BME280;5655;48.744;9.162;2023-07-29T09:29:49;95649.81;;;22.75;100.00
11198;BME280;5655;48.744;9.162;2023-07-29T09:32:19;95639.28;;;22.92;100.00
11198;BME280;5655;48.744;9.162;2023-07-29T09:34:45;95628.50;;;22.97;100.00
11198;BME280;5655;48.744;9.162;2023-07-29T09:37:15;95633.66;;;22.95;100.00
11198;BME280;5655;48.744;9.162;2023-07-29T09:39:44;95636.50;;;23.10;100.00
11198;BME280;5655;48.744;9.162;2023-07-29T09:42:16;95634.13;;;23.27;100.00
11198;BME280;5655;48.744;9.162;2023-07-29T09:44:42;95646.03;;;23.15;100.00
11198;BME280;5655;48.744;9.162;2023-07-29T09:47:07;95645.22;;;23.23;100.00
11198;BME280;5655;48.744;9.162;2023-07-29T09:49:35;95627.47;;;23.28;100.00
11198;BME280;5655;48.744;9.162;2023-07-29T09:52:02;95627.75;;;23.30;100.00
11198;BME280;5655;48.744;9.162;2023-07-29T09:54:30;95617.81;;;23.41;100.00
11198;BME280;5655;48.744;9.162;2023-07-29T09:56:56;95632.19;;;22.85;100.00
11198;BME280;5655;48.744;9.162;2023-07-29T09:59:23;95634.66;;;23.40;100.00
11198;BME280;5655;48.744;9.162;2023-07-29T10:01:49;95619.06;;;23.64;100.00
11198;BME280;5655;48.744;9.162;2023-07-29T10:04:15;95610.09;;;23.87;100.00
11198;BME280;5655;48.744;9.162;2023-07-29T10:06:42;95614.84;;;24.02;100.00
11198;BME280;5655;48.744;9.162;2023-07-29T10:09:11;95620.31;;;24.02;100.00
11198;BME280;5655;48.744;9.162;2023-07-29T10:11:37;95612.06;;;24.40;100.00
11198;BME280;5655;48.744;9.162;2023-07-29T10:14:03;95620.75;;;24.53;100.00
11198;BME280;5655;48.744;9.162;2023-07-29T10:16:28;95625.00;;;24.69;100.00
11198;BME280;5655;48.744;9.162;2023-07-29T10:18:54;95646.53;;;24.91;100.00
11198;BME280;5655;48.744;9.162;2023-07-29T10:21:21;95644.16;;;24.83;100.00
11198;BME280;5655;48.744;9.162;2023-07-29T10:23:49;95643.00;;;25.05;100.00
11198;BME280;5655;48.744;9.162;2023-07-29T10:26:19;95660.56;;;25.13;100.00
11198;BME280;5655;48.744;9.162;2023-07-29T10:28:47;95672.69;;;24.92;100.00
11198;BME280;5655;48.744;9.162;2023-07-29T10:31:15;95673.59;;;24.74;100.00
11198;BME280;5655;48.744;9.162;2023-07-29T10:33:41;95659.09;;;24.97;100.00
11198;BME280;5655;48.744;9.162;2023-07-29T10:36:07;95666.63;;;25.37;100.00
11198;BME280;5655;48.744;9.162;2023-07-29T10:38:33;95674.81;;;25.17;100.00
11198;BME280;5655;48.744;9.162;2023-07-29T10:40:58;95673.78;;;25.14;100.00
11198;BME280;5655;48.744;9.162;2023-07-29T10:45:56;95687.50;;;25.00;100.00
11198;BME280;5655;48.744;9.162;2023-07-29T10:51:24;95690.03;;;25.03;100.00
11198;BME280;5655;48.744;9.162;2023-07-29T10:54:17;95698.69;;;25.31;100.00
11198;BME280;5655;48.744;9.162;2023-07-29T10:56:47;95689.34;;;25.72;100.00
11198;BME280;5655;48.744;9.162;2023-07-29T11:01:41;95685.03;;;25.51;100.00
11198;BME280;5655;48.744;9.162;2023-07-29T11:12:38;95691.47;;;25.48;100.00
11198;BME280;5655;48.744;9.162;2023-07-29T11:15:12;95691.16;;;25.11;100.00
11198;BME280;5655;48.744;9.162;2023-07-29T11:17:40;95688.50;;;25.17;100.00
11198;BME280;5655;48.744;9.162;2023-07-29T11:20:07;95686.56;;;25.38;100.00
11198;BME280;5655;48.744;9.162;2023-07-29T11:22:33;95683.59;;;25.70;100.00
11198;BME280;5655;48.744;9.162;2023-07-29T11:24:58;95704.34;;;25.57;100.00
11198;BME280;5655;48.744;9.162;2023-07-29T11:27:24;95709.34;;;25.58;100.00
11198;BME280;5655;48.744;9.162;2023-07-29T11:29:49;95706.19;;;25.51;100.00
11198;BME280;5655;48.744;9.162;2023-07-29T11:32:15;95707.72;;;25.66;100.00
11198;BME280;5655;48.744;9.162;2023-07-29T11:34:41;95700.84;;;25.77;100.00
11198;BME280;5655;48.744;9.162;2023-07-29T11:37:10;95694.16;;;25.78;100.00
11198;BME280;5655;48.744;9.162;2023-07-29T11:39:43;95698.28;;;26.08;100.00
11198;BME280;5655;48.744;9.162;2023-07-29T11:42:12;95696.28;;;26.08;100.00
11198;BME280;5655;48.744;9.162;2023-07-29T11:44:38;95697.19;;;26.00;100.00
11198;BME280;5655;48.744;9.162;2023-07-29T11:47:12;95701.31;;;26.10;100.00
11198;BME280;5655;48.744;9.162;2023-07-29T11:49:39;95696.91;;;26.18;100.00
11198;BME280;5655;48.744;9.162;2023-07-29T11:52:08;95701.03;;;26.28;100.00
11198;BME280;5655;48.744;9.162;2023-07-29T11:54:38;95692.25;;;26.96;100.00
11198;BME280;5655;48.744;9.162;2023-07-29T11:57:13;95709.72;;;27.56;100.00
11198;BME280;5655;48.744;9.162;2023-07-29T11:59:39;95708.97;;;27.55;100.00
11198;BME280;5655;48.744;9.162;2023-07-29T12:02:12;95703.38;;;27.44;100.00
11198;BME280;5655;48.744;9.162;2023-07-29T12:04:39;95708.06;;;27.75;100.00
11198;BME280;5655;48.744;9.162;2023-07-29T12:07:05;95694.41;;;27.86;100.00
11198;BME280;5655;48.744;9.162;2023-07-29T12:09:31;95701.91;;;27.48;100.00
11198;BME280;5655;48.744;9.162;2023-07-29T12:11:57;95700.66;;;27.49;100.00
11198;BME280;5655;48.744;9.162;2023-07-29T12:14:26;95685.00;;;27.61;100.00
11198;BME280;5655;48.744;9.162;2023-07-29T12:16:51;95697.09;;;27.80;100.00
11198;BME280;5655;48.744;9.162;2023-07-29T12:19:17;95694.84;;;27.79;100.00
11198;BME280;5655;48.744;9.162;2023-07-29T12:21:43;95695.38;;;27.83;100.00
11198;BME280;5655;48.744;9.162;2023-07-29T12:24:09;95682.56;;;28.22;100.00
11198;BME280;5655;48.744;9.162;2023-07-29T12:26:37;95686.41;;;28.47;100.00
11198;BME280;5655;48.744;9.162;2023-07-29T12:29:18;95690.66;;;28.54;100.00
11198;BME280;5655;48.744;9.162;2023-07-29T12:31:45;95689.50;;;28.77;100.00
11198;BME280;5655;48.744;9.162;2023-07-29T12:34:20;95697.09;;;28.28;100.00
11198;BME280;5655;48.744;9.162;2023-07-29T12:36:47;95689.06;;;28.30;100.00
11198;BME280;5655;48.744;9.162;2023-07-29T12:39:21;95678.56;;;28.23;100.00
11198;BME280;5655;48.744;9.162;2023-07-29T12:41:47;95696.16;;;28.42;100.00
11198;BME280;5655;48.744;9.162;2023-07-29T12:44:13;95693.69;;;28.56;100.00
11198;BME280;5655;48.744;9.162;2023-07-29T12:46:38;95684.75;;;28.94;100.00
11198;BME280;5655;48.744;9.162;2023-07-29T12:49:04;95684.25;;;28.90;100.00
11198;BME280;5655;48.744;9.162;2023-07-29T12:51:29;95683.97;;;28.77;100.00
11198;BME280;5655;48.744;9.162;2023-07-29T12:53:55;95684.72;;;28.83;100.00
11198;BME280;5655;48.744;9.162;2023-07-29T12:56:20;95691.25;;;29.02;100.00
11198;BME280;5655;48.744;9.162;2023-07-29T12:58:45;95699.75;;;29.26;100.00
11198;BME280;5655;48.744;9.162;2023-07-29T13:01:11;95680.22;;;29.24;100.00
11198;BME280;5655;48.744;9.162;2023-07-29T13:03:41;95696.75;;;28.91;100.00
11198;BME280;5655;48.744;9.162;2023-07-29T13:06:07;95686.22;;;28.73;100.00
11198;BME280;5655;48.744;9.162;2023-07-29T13:08:32;95692.00;;;28.92;100.00
11198;BME280;5655;48.744;9.162;2023-07-29T13:10:57;95685.00;;;29.02;100.00
11198;BME280;5655;48.744;9.162;2023-07-29T13:13:23;95687.72;;;29.63;100.00
11198;BME280;5655;48.744;9.162;2023-07-29T13:15:48;95691.50;;;29.21;100.00
11198;BME280;5655;48.744;9.162;2023-07-29T13:18:13;95679.00;;;29.03;100.00
11198;BME280;5655;48.744;9.162;2023-07-29T13:20:38;95678.41;;;28.66;100.00